Time;durP1;ratioP1;P1;durP2;ratioP2;P2;SDS_P1;SDS_P2;PMS_P1;PMS_P2;Temp;Humidity;BMP_temperature;BMP_pressure;BME280_temperature;BME280_humidity;BME280_pressure;Samples;Min_cycle;Max_cycle;Signal;HPM_P1;HPM_P2
2023/01/21 00:00:26;;;;;;;70.80;23.40;;;;;;;-3.42;100.00;102422.06;5031329;28;20025;-85
2023/01/21 00:02:51;;;;;;;71.77;24.70;;;;;;;-3.52;100.00;102411.50;5030864;28;20021;-84
2023/01/21 00:05:17;;;;;;;67.67;24.27;;;;;;;-3.47;100.00;102424.25;5013345;28;20038;-84
2023/01/21 00:07:42;;;;;;;68.45;22.20;;;;;;;-3.59;100.00;102420.84;5012000;28;20034;-85
2023/01/21 00:10:08;;;;;;;73.37;22.40;;;;;;;-3.59;100.00;102437.38;5011137;28;20141;-85
2023/01/21 00:12:33;;;;;;;70.37;21.80;;;;;;;-3.65;100.00;102437.88;5013376;28;20029;-84
2023/01/21 00:14:58;;;;;;;72.63;23.33;;;;;;;-3.65;100.00;102437.88;5012765;28;20033;-84
2023/01/21 00:17:24;;;;;;;61.93;21.57;;;;;;;-3.59;100.00;102453.09;5013038;28;20030;-84
2023/01/21 00:19:49;;;;;;;65.33;21.43;;;;;;;-3.58;100.00;102464.44;5020636;28;20035;-84
2023/01/21 00:22:14;;;;;;;76.90;24.50;;;;;;;-3.56;100.00;102452.88;5017470;28;20060;-84
2023/01/21 00:24:40;;;;;;;71.50;22.13;;;;;;;-3.68;100.00;102430.28;5013102;28;20029;-84
2023/01/21 00:27:05;;;;;;;76.47;23.17;;;;;;;-3.55;100.00;102453.69;4994615;28;20061;-85
2023/01/21 00:29:30;;;;;;;66.27;23.17;;;;;;;-3.62;100.00;102455.16;5020930;28;20033;-84
2023/01/21 00:31:56;;;;;;;76.22;24.48;;;;;;;-3.56;100.00;102458.09;5014884;28;20029;-84
2023/01/21 00:34:21;;;;;;;69.83;22.80;;;;;;;-3.63;100.00;102450.88;5033740;28;20029;-84
2023/01/21 00:36:46;;;;;;;76.83;23.93;;;;;;;-3.69;100.00;102452.19;5027791;28;20030;-84
2023/01/21 00:39:11;;;;;;;63.33;20.80;;;;;;;-3.65;100.00;102467.53;5010081;28;20544;-85
2023/01/21 00:41:37;;;;;;;65.63;23.00;;;;;;;-3.73;100.00;102461.25;4993380;28;20030;-85
2023/01/21 00:44:03;;;;;;;69.27;22.80;;;;;;;-3.74;100.00;102455.16;5008063;28;20029;-84
2023/01/21 00:46:29;;;;;;;70.40;23.23;;;;;;;-3.72;100.00;102463.75;4999932;28;20149;-84
2023/01/21 00:48:55;;;;;;;71.15;22.83;;;;;;;-3.72;100.00;102471.59;4992526;28;20057;-83
2023/01/21 00:51:22;;;;;;;74.93;23.40;;;;;;;-3.75;100.00;102481.50;4995437;28;20108;-83
2023/01/21 00:53:47;;;;;;;76.78;21.65;;;;;;;-3.77;100.00;102471.16;4990770;28;20109;-84
2023/01/21 00:56:14;;;;;;;70.90;23.27;;;;;;;-3.94;100.00;102458.56;5012590;28;20136;-84
2023/01/21 00:58:42;;;;;;;79.72;26.05;;;;;;;-3.87;100.00;102478.91;5011005;28;20037;-85
2023/01/21 01:01:17;;;;;;;71.20;23.05;;;;;;;-3.84;100.00;102483.91;5030428;28;20069;-84
2023/01/21 01:03:44;;;;;;;71.55;23.75;;;;;;;-3.98;100.00;102479.75;5022165;28;20033;-86
2023/01/21 01:06:19;;;;;;;71.07;22.90;;;;;;;-3.84;100.00;102504.88;5012676;28;20026;-87
2023/01/21 01:08:48;;;;;;;79.93;24.47;;;;;;;-3.89;100.00;102508.78;5014534;28;20692;-87
2023/01/21 01:11:14;;;;;;;80.60;24.85;;;;;;;-3.89;100.00;102525.34;5032468;28;20037;-87
2023/01/21 01:13:40;;;;;;;70.68;24.27;;;;;;;-3.93;100.00;102529.16;5032417;28;20108;-88
2023/01/21 01:16:09;;;;;;;70.73;22.70;;;;;;;-3.93;100.00;102530.94;5032220;28;20056;-88
2023/01/21 01:18:35;;;;;;;76.88;23.73;;;;;;;-3.97;100.00;102527.72;5015764;28;20113;-87
2023/01/21 01:21:03;;;;;;;79.57;23.92;;;;;;;-4.08;100.00;102525.94;5025173;28;20029;-88
2023/01/21 01:23:29;;;;;;;80.03;24.70;;;;;;;-4.08;100.00;102530.34;4995133;28;20034;-87
2023/01/21 01:26:03;;;;;;;76.68;24.55;;;;;;;-4.03;100.00;102546.53;5020832;28;20429;-87
2023/01/21 01:28:29;;;;;;;64.33;21.73;;;;;;;-4.09;100.00;102544.38;5021391;28;20029;-87
2023/01/21 01:30:54;;;;;;;67.80;21.20;;;;;;;-4.15;100.00;102545.69;5013725;28;20305;-87
2023/01/21 01:33:20;;;;;;;80.57;25.17;;;;;;;-4.05;100.00;102564.16;4994589;28;20064;-87
2023/01/21 01:35:48;;;;;;;78.80;24.40;;;;;;;-4.14;100.00;102555.22;4993511;28;20073;-88
2023/01/21 01:38:19;;;;;;;83.28;25.05;;;;;;;-4.35;100.00;102540.19;5011401;28;20026;-87
2023/01/21 01:40:45;;;;;;;79.00;23.92;;;;;;;-4.21;100.00;102578.44;5029464;28;20086;-87
2023/01/21 01:43:48;;;;;;;83.87;23.97;;;;;;;-4.18;100.00;102583.41;5010175;28;20040;-87
2023/01/21 01:46:13;;;;;;;81.30;24.50;;;;;;;-4.18;100.00;102591.25;5009942;28;20301;-88
2023/01/21 01:48:43;;;;;;;77.72;24.77;;;;;;;-4.18;100.00;102593.06;5010850;28;20041;-87
2023/01/21 01:51:08;;;;;;;74.30;24.20;;;;;;;-4.22;100.00;102589.84;5011231;28;20041;-87
2023/01/21 01:53:39;;;;;;;81.73;25.53;;;;;;;-4.28;100.00;102595.53;5010197;28;20288;-87
2023/01/21 01:56:05;;;;;;;90.90;27.67;;;;;;;-4.30;100.00;102600.06;5012097;28;20390;-87
2023/01/21 01:58:31;;;;;;;85.60;25.30;;;;;;;-4.30;100.00;102597.44;5011900;28;20033;-87
2023/01/21 02:00:58;;;;;;;78.63;25.73;;;;;;;-4.33;100.00;102595.03;5012054;28;20025;-88
2023/01/21 02:03:45;;;;;;;83.50;24.40;;;;;;;-4.37;100.00;102604.06;5017690;28;20112;-87
2023/01/21 02:06:12;;;;;;;85.70;25.70;;;;;;;-4.39;100.00;102600.75;5000754;28;20045;-87
2023/01/21 02:08:38;;;;;;;78.57;26.13;;;;;;;-4.55;100.00;102586.19;5011141;28;20632;-87
2023/01/21 02:11:15;;;;;;;87.00;26.97;;;;;;;-4.50;100.00;102588.47;5027188;28;20026;-87
2023/01/21 02:13:43;;;;;;;92.18;28.05;;;;;;;-4.41;100.00;102606.94;5025177;28;20040;-87
2023/01/21 02:16:18;;;;;;;94.30;27.17;;;;;;;-4.43;100.00;102615.84;5010722;28;20029;-87
2023/01/21 02:18:58;;;;;;;90.85;28.38;;;;;;;-4.46;100.00;102627.38;5010390;28;20088;-87
2023/01/21 02:22:05;;;;;;;86.60;27.83;;;;;;;-4.51;100.00;102626.06;5012642;28;20413;-86
2023/01/21 02:25:12;;;;;;;83.97;27.17;;;;;;;-4.54;100.00;102634.13;5002748;28;20050;-86
2023/01/21 02:28:12;;;;;;;84.40;26.52;;;;;;;-4.52;100.00;102640.09;5022453;28;20038;-87
2023/01/21 02:30:44;;;;;;;95.28;28.63;;;;;;;-4.51;100.00;102649.59;5031403;28;20503;-87
2023/01/21 02:33:22;;;;;;;98.45;28.27;;;;;;;-4.60;100.00;102632.81;5004934;28;20572;-87
2023/01/21 02:36:35;;;;;;;103.38;31.20;;;;;;;-4.57;100.00;102641.25;5027068;28;20056;-87
2023/01/21 02:39:19;;;;;;;92.00;27.20;;;;;;;-4.56;100.00;102639.44;4984686;28;20081;-86
2023/01/21 02:42:01;;;;;;;102.43;30.07;;;;;;;-4.59;100.00;102648.38;4992114;28;20277;-87
2023/01/21 02:44:36;;;;;;;83.03;27.08;;;;;;;-4.72;100.00;102645.00;5008800;28;20026;-86
2023/01/21 02:47:17;;;;;;;99.50;30.27;;;;;;;-4.73;100.00;102646.75;5015328;28;20041;-87
2023/01/21 02:49:54;;;;;;;96.88;30.63;;;;;;;-4.73;100.00;102654.59;5010603;28;20038;-87
2023/01/21 02:52:35;;;;;;;95.60;29.38;;;;;;;-5.10;100.00;102597.13;5006394;23;20041;-87
2023/01/21 02:55:01;;;;;;;91.97;29.07;;;;;;;-4.97;100.00;102628.44;4979277;28;20417;-87
2023/01/21 02:57:47;;;;;;;92.93;28.50;;;;;;;-4.79;100.00;102662.91;5015707;28;20288;-88
2023/01/21 03:00:21;;;;;;;98.15;28.88;;;;;;;-4.93;100.00;102661.28;5003271;28;20041;-87
2023/01/21 03:03:15;;;;;;;87.80;27.35;;;;;;;-4.85;100.00;102676.44;5021207;28;20026;-86
2023/01/21 03:06:02;;;;;;;92.55;28.98;;;;;;;-4.92;100.00;102677.81;5005229;28;20037;-86
2023/01/21 03:08:51;;;;;;;97.63;29.07;;;;;;;-5.02;100.00;102677.63;5010880;28;20106;-87
2023/01/21 03:11:19;;;;;;;98.00;30.63;;;;;;;-5.01;100.00;102679.28;5008056;28;20297;-87
2023/01/21 03:17:00;;;;;;;108.15;32.00;;;;;;;-4.94;100.00;102680.53;5010817;28;20037;-87
2023/01/21 03:35:54;;;;;;;99.70;29.67;;;;;;;-4.91;100.00;102689.94;5150672;22;20052;-85
2023/01/21 03:38:25;;;;;;;101.10;30.55;;;;;;;-4.87;100.00;102705.31;5003066;28;20045;-84
2023/01/21 03:41:16;;;;;;;95.20;28.97;;;;;;;-4.88;100.00;102695.81;5058077;28;20080;-83
2023/01/21 03:43:41;;;;;;;90.32;25.65;;;;;;;-4.79;100.00;102691.69;5052045;28;20051;-83
2023/01/21 03:46:15;;;;;;;88.23;28.07;;;;;;;-4.75;100.00;102706.19;5056953;28;20538;-83
2023/01/21 03:48:52;;;;;;;93.30;29.43;;;;;;;-4.81;100.00;102700.56;5029014;28;20287;-83
2023/01/21 03:51:24;;;;;;;95.65;27.50;;;;;;;-4.79;100.00;102706.53;5052090;28;20059;-83
2023/01/21 03:53:57;;;;;;;97.90;28.95;;;;;;;-4.83;100.00;102708.53;5030986;28;20040;-83
2023/01/21 03:56:24;;;;;;;93.18;26.45;;;;;;;-4.78;100.00;102718.66;5052227;28;20029;-84
2023/01/21 03:58:50;;;;;;;96.43;29.40;;;;;;;-4.79;100.00;102724.84;5051523;28;20480;-83
2023/01/21 04:01:16;;;;;;;90.70;27.20;;;;;;;-4.83;100.00;102723.38;5060432;28;20095;-83
2023/01/21 04:03:42;;;;;;;93.45;27.35;;;;;;;-4.87;100.00;102733.25;5046883;28;20029;-83
2023/01/21 04:06:16;;;;;;;93.60;27.70;;;;;;;-4.93;100.00;102726.66;5052829;28;20052;-83
2023/01/21 04:08:41;;;;;;;97.55;28.25;;;;;;;-4.97;100.00;102717.38;5052612;28;20029;-84
2023/01/21 04:11:07;;;;;;;93.10;30.17;;;;;;;-5.02;100.00;102702.00;5053396;28;20035;-84
2023/01/21 04:13:32;;;;;;;95.73;26.00;;;;;;;-4.96;100.00;102718.22;5051840;28;20021;-84
2023/01/21 04:15:57;;;;;;;96.10;28.00;;;;;;;-4.93;100.00;102728.47;5047742;28;20025;-84
2023/01/21 04:18:23;;;;;;;101.87;28.10;;;;;;;-4.88;100.00;102731.56;5053690;28;20516;-84
2023/01/21 04:20:51;;;;;;;100.30;27.30;;;;;;;-4.83;100.00;102739.09;5055834;28;20021;-84
2023/01/21 04:23:17;;;;;;;84.20;25.20;;;;;;;-4.95;100.00;102722.50;5021254;28;20408;-84
2023/01/21 04:25:43;;;;;;;96.90;28.17;;;;;;;-4.93;100.00;102733.69;5056870;28;20051;-84
2023/01/21 04:28:08;;;;;;;100.73;27.13;;;;;;;-4.89;100.00;102746.44;5052593;28;20040;-84
2023/01/21 04:30:33;;;;;;;92.70;27.10;;;;;;;-4.89;100.00;102745.59;5048741;28;20043;-84
2023/01/21 04:32:59;;;;;;;91.25;26.30;;;;;;;-4.90;100.00;102752.63;5037862;28;20064;-84
2023/01/21 04:35:24;;;;;;;96.50;25.63;;;;;;;-4.99;100.00;102739.34;5053156;28;20119;-84
2023/01/21 04:37:51;;;;;;;84.00;24.07;;;;;;;-5.05;100.00;102743.22;5053740;28;20033;-85
2023/01/21 04:40:16;;;;;;;94.07;27.05;;;;;;;-5.08;100.00;102738.22;5056827;28;20535;-83
2023/01/21 04:42:42;;;;;;;92.60;25.40;;;;;;;-5.07;100.00;102740.69;5049729;28;20029;-83
2023/01/21 04:45:08;;;;;;;76.23;24.10;;;;;;;-5.08;100.00;102746.06;5038061;28;20117;-84
2023/01/21 04:47:33;;;;;;;82.00;24.83;;;;;;;-5.08;100.00;102743.44;5056033;28;20017;-85
2023/01/21 04:49:59;;;;;;;89.53;25.13;;;;;;;-5.02;100.00;102746.47;5050858;28;20037;-85
2023/01/21 04:52:24;;;;;;;77.70;24.77;;;;;;;-5.05;100.00;102751.91;5052742;28;20292;-85
2023/01/21 04:54:49;;;;;;;92.75;26.23;;;;;;;-5.07;100.00;102750.34;5063002;28;20025;-83
2023/01/21 04:57:15;;;;;;;91.53;25.60;;;;;;;-5.00;100.00;102755.97;5060248;28;20035;-85
2023/01/21 04:59:40;;;;;;;88.30;24.60;;;;;;;-5.04;100.00;102757.97;5059105;28;20036;-86
2023/01/21 05:02:05;;;;;;;94.33;26.80;;;;;;;-5.01;100.00;102757.75;5057669;28;20484;-85
2023/01/21 05:04:31;;;;;;;99.23;27.53;;;;;;;-4.95;100.00;102766.97;5051514;28;20029;-84
2023/01/21 05:06:57;;;;;;;104.88;28.48;;;;;;;-5.00;100.00;102763.81;5035390;28;20037;-85
2023/01/21 05:09:23;;;;;;;100.93;28.10;;;;;;;-4.96;100.00;102773.94;5053098;28;20072;-85
2023/01/21 05:11:48;;;;;;;92.00;25.10;;;;;;;-4.96;100.00;102771.34;5072123;28;20020;-85
2023/01/21 05:14:13;;;;;;;91.40;25.27;;;;;;;-5.00;100.00;102775.09;5054876;28;20049;-85
2023/01/21 05:16:39;;;;;;;89.73;24.43;;;;;;;-5.25;100.00;102755.03;5051859;28;20064;-86
2023/01/21 05:19:04;;;;;;;79.50;24.05;;;;;;;-5.17;100.00;102784.13;5070263;28;20051;-85
2023/01/21 05:21:29;;;;;;;83.67;24.03;;;;;;;-5.27;100.00;102776.09;5054682;28;20028;-85
2023/01/21 05:23:55;;;;;;;85.77;24.90;;;;;;;-5.25;100.00;102791.66;5037964;28;20018;-86
2023/01/21 05:26:20;;;;;;;79.43;22.63;;;;;;;-5.33;100.00;102776.50;5038543;28;20029;-85
2023/01/21 05:28:45;;;;;;;79.13;23.17;;;;;;;-5.37;100.00;102777.63;5050159;28;20044;-85
2023/01/21 05:31:11;;;;;;;82.15;24.38;;;;;;;-5.32;100.00;102786.84;5049873;28;20125;-85
2023/01/21 05:33:36;;;;;;;81.93;24.60;;;;;;;-5.36;100.00;102790.59;5050686;28;20029;-85
2023/01/21 05:36:03;;;;;;;83.23;23.07;;;;;;;-5.46;100.00;102781.69;5033062;28;20028;-85
2023/01/21 05:38:29;;;;;;;90.18;24.35;;;;;;;-5.47;100.00;102793.09;5026892;28;20033;-86
2023/01/21 05:40:56;;;;;;;76.30;24.23;;;;;;;-5.58;100.00;102787.75;5049671;28;20392;-86
2023/01/21 05:43:21;;;;;;;81.50;23.15;;;;;;;-5.60;100.00;102787.88;5038100;28;20052;-86
2023/01/21 05:45:47;;;;;;;90.57;26.77;;;;;;;-5.41;100.00;102805.75;5035863;28;20435;-86
2023/01/21 05:48:12;;;;;;;84.75;23.70;;;;;;;-5.44;100.00;102802.53;5046900;28;20072;-86
2023/01/21 05:50:37;;;;;;;77.87;23.83;;;;;;;-5.38;100.00;102823.84;5051334;28;20061;-86
2023/01/21 05:53:03;;;;;;;77.73;22.87;;;;;;;-5.52;100.00;102798.63;5050355;28;20025;-86
2023/01/21 05:55:29;;;;;;;82.82;24.10;;;;;;;-5.44;100.00;102813.78;5049436;28;20115;-86
2023/01/21 05:57:54;;;;;;;80.30;21.50;;;;;;;-5.42;100.00;102822.38;5057136;28;20066;-86
2023/01/21 06:00:21;;;;;;;84.90;22.90;;;;;;;-5.51;100.00;102821.22;5039589;28;20044;-88
2023/01/21 06:02:46;;;;;;;81.25;22.63;;;;;;;-5.50;100.00;102825.50;5050387;28;20031;-90
2023/01/21 06:05:11;;;;;;;68.33;21.30;;;;;;;-5.53;100.00;102823.09;5051247;28;20041;-88
2023/01/21 06:07:37;;;;;;;76.43;22.57;;;;;;;-5.66;100.00;102807.38;5050524;28;20105;-87
2023/01/21 06:10:02;;;;;;;73.60;20.27;;;;;;;-5.60;100.00;102826.22;5050207;28;20025;-88
2023/01/21 06:12:28;;;;;;;70.60;20.80;;;;;;;-5.73;100.00;102813.13;5042553;28;20033;-86
2023/01/21 06:14:53;;;;;;;74.73;22.70;;;;;;;-5.62;100.00;102834.97;5052759;28;20082;-87
2023/01/21 06:17:18;;;;;;;70.50;21.07;;;;;;;-5.69;100.00;102823.28;5051302;28;20028;-85
2023/01/21 06:19:44;;;;;;;80.47;22.65;;;;;;;-5.60;100.00;102844.50;5049541;28;20593;-85
2023/01/21 06:22:14;;;;;;;84.30;24.40;;;;;;;-5.72;100.00;102817.41;5041366;28;20124;-86
2023/01/21 06:24:39;;;;;;;89.75;24.27;;;;;;;-5.69;100.00;102817.22;5050728;28;20037;-86
2023/01/21 06:27:06;;;;;;;85.90;23.50;;;;;;;-5.53;100.00;102845.78;5057487;28;20358;-86
2023/01/21 06:29:37;;;;;;;80.93;23.52;;;;;;;-5.52;100.00;102842.22;5065288;28;20011;-87
2023/01/21 06:32:17;;;;;;;76.43;22.23;;;;;;;-5.73;100.00;102818.34;5052070;28;20033;-86
2023/01/21 06:34:43;;;;;;;83.97;21.27;;;;;;;-5.72;100.00;102818.25;5042187;28;20319;-88
2023/01/21 06:37:14;;;;;;;81.50;21.90;;;;;;;-5.74;100.00;102812.28;5037973;28;20025;-88
2023/01/21 06:39:41;;;;;;;81.33;22.83;;;;;;;-5.85;100.00;102806.94;5053860;28;20033;-87
2023/01/21 06:42:09;;;;;;;82.15;22.17;;;;;;;-5.62;100.00;102842.81;5054122;28;20029;-88
2023/01/21 06:45:09;;;;;;;84.90;23.15;;;;;;;-5.38;100.00;102862.19;5039445;28;20036;-88
2023/01/21 06:47:34;;;;;;;76.85;22.05;;;;;;;-5.60;100.00;102836.66;5033001;28;20025;-86
2023/01/21 06:50:56;;;;;;;;;;;;;;;;;;;;;
2023/01/21 06:53:32;;;;;;;77.35;21.52;;;;;;;-5.72;100.00;102836.53;4973873;28;20131;-88
2023/01/21 06:56:21;;;;;;;82.82;23.25;;;;;;;-5.53;100.00;102882.34;4987851;28;20042;-87
2023/01/21 06:58:47;;;;;;;80.93;20.90;;;;;;;-5.66;100.00;102883.13;4975012;28;20498;-89
2023/01/21 07:01:15;;;;;;;72.87;21.43;;;;;;;-5.81;100.00;102869.31;4973011;28;20371;-89
2023/01/21 07:03:46;;;;;;;73.63;21.63;;;;;;;-5.94;100.00;102864.03;5018326;28;20041;-91
2023/01/21 07:06:51;;;;;;;74.88;22.15;;;;;;;-6.17;100.00;102847.28;5039439;22;20069;-91
2023/01/21 07:09:41;;;;;;;88.72;23.10;;;;;;;-5.95;100.00;102869.38;5026222;28;20070;-92
2023/01/21 07:14:46;;;;;;;80.63;23.17;;;;;;;-5.66;100.00;102913.66;5115884;22;20417;-91
2023/01/21 07:20:57;;;;;;;74.78;22.98;;;;;;;-6.19;100.00;102863.94;5046057;22;20045;-92
2023/01/21 07:26:27;;;;;;;69.10;20.53;;;;;;;-6.27;100.00;102873.09;5366638;22;20125;-89
2023/01/21 07:28:56;;;;;;;70.90;21.33;;;;;;;-6.11;100.00;102908.69;5032056;28;20291;-89
2023/01/21 07:31:29;;;;;;;82.35;22.83;;;;;;;-6.13;100.00;102907.94;5029323;28;20026;-89
2023/01/21 07:34:24;;;;;;;75.55;21.77;;;;;;;-5.84;100.00;102937.41;5023676;28;20022;-91
2023/01/21 07:37:24;;;;;;;77.47;20.92;;;;;;;-5.75;100.00;102941.22;4999728;28;20034;-90
2023/01/21 07:39:51;;;;;;;71.00;21.27;;;;;;;-5.91;100.00;102928.28;5003567;28;20049;-89
2023/01/21 07:42:29;;;;;;;72.73;22.03;;;;;;;-6.10;100.00;102915.59;5014777;28;20030;-90
2023/01/21 07:45:02;;;;;;;87.28;24.13;;;;;;;-6.06;100.00;102921.44;5003437;28;20544;-89
2023/01/21 07:47:37;;;;;;;79.70;22.80;;;;;;;-6.11;100.00;102900.84;5004294;28;20046;-90
2023/01/21 07:50:07;;;;;;;89.60;24.65;;;;;;;-5.87;100.00;102939.38;4998774;28;20457;-89
2023/01/21 07:52:32;;;;;;;89.65;24.05;;;;;;;-5.84;100.00;102940.03;5010881;28;20030;-89
2023/01/21 07:55:00;;;;;;;86.83;22.20;;;;;;;-5.75;100.00;102945.63;5021051;28;20021;-89
2023/01/21 07:57:28;;;;;;;99.25;24.33;;;;;;;-5.50;100.00;102986.69;5020292;28;20033;-89
2023/01/21 08:00:15;;;;;;;89.90;23.13;;;;;;;-5.51;100.00;102971.94;5016958;28;20056;-88
2023/01/21 08:02:41;;;;;;;96.27;23.57;;;;;;;-5.36;100.00;102967.47;5014323;28;20301;-88
2023/01/21 08:05:18;;;;;;;93.85;25.27;;;;;;;-5.40;100.00;102945.13;5013208;28;20026;-88
2023/01/21 08:23:16;;;;;;;113.32;25.23;;;;;;;-4.17;100.00;103006.66;5477790;22;20057;-88
2023/01/21 08:26:04;;;;;;;134.70;28.43;;;;;;;-3.99;100.00;103033.38;5048898;28;20080;-89
2023/01/21 08:28:30;;;;;;;134.55;29.15;;;;;;;-4.01;100.00;103018.69;5036853;28;20025;-88
2023/01/21 08:31:25;;;;;;;142.45;30.02;;;;;;;-3.76;100.00;103051.88;5040964;28;20126;-88
2023/01/21 08:34:01;;;;;;;128.73;26.55;;;;;;;-4.07;100.00;102991.13;4936865;29;20074;-88
2023/01/21 08:36:27;;;;;;;145.60;30.97;;;;;;;-3.63;100.00;103057.06;4936078;29;20050;-88
2023/01/21 08:39:05;;;;;;;150.30;31.83;;;;;;;-3.63;100.00;103049.22;4965908;28;20292;-89
2023/01/21 08:41:31;;;;;;;151.18;31.67;;;;;;;-3.46;100.00;103076.00;5035599;28;20036;-88
2023/01/21 08:43:56;;;;;;;159.20;33.03;;;;;;;-3.47;100.00;103071.75;5035862;28;20029;-89
2023/01/21 08:46:22;;;;;;;141.60;29.65;;;;;;;-3.56;100.00;103050.47;5033690;28;20045;-89
2023/01/21 08:48:47;;;;;;;135.03;28.93;;;;;;;-3.39;100.00;103077.25;5016122;28;20041;-88
2023/01/21 08:51:21;;;;;;;147.87;30.93;;;;;;;-3.36;100.00;103071.81;5037699;28;20037;-89
2023/01/21 08:53:51;;;;;;;143.77;29.23;;;;;;;-3.35;100.00;103079.53;5036642;28;20021;-87
2023/01/21 08:56:17;;;;;;;97.00;20.05;;;;;;;-3.30;100.00;103075.75;5018999;28;20025;-87
2023/01/21 08:59:01;;;;;;;155.60;31.02;;;;;;;-3.41;100.00;103063.41;5042224;28;20026;-87
2023/01/21 09:01:28;;;;;;;152.83;30.70;;;;;;;-3.17;100.00;103099.34;5044329;28;20029;-88
2023/01/21 09:03:59;;;;;;;147.98;30.77;;;;;;;-3.20;100.00;103093.34;5045727;28;20097;-89
2023/01/21 09:06:28;;;;;;;129.18;26.90;;;;;;;-3.12;100.00;103099.84;5042844;28;20021;-88
2023/01/21 09:08:54;;;;;;;166.93;30.60;;;;;;;-3.13;100.00;103090.31;5037958;28;20073;-89
2023/01/21 09:11:19;;;;;;;133.70;29.10;;;;;;;-3.03;100.00;103098.34;5033224;28;20396;-88
2023/01/21 09:13:47;;;;;;;158.40;28.30;;;;;;;-3.01;100.00;103089.41;5032623;28;20028;-89
2023/01/21 09:16:18;;;;;;;130.13;26.80;;;;;;;-2.86;100.00;103095.31;5032322;28;20040;-88
2023/01/21 09:18:44;;;;;;;136.93;27.63;;;;;;;-2.82;100.00;103096.75;5032773;28;20488;-89
2023/01/21 09:21:10;;;;;;;133.33;26.63;;;;;;;-2.87;100.00;103092.78;5015939;28;20028;-86
2023/01/21 09:23:37;;;;;;;133.98;28.85;;;;;;;-2.76;100.00;103100.72;5039649;28;20040;-88
2023/01/21 09:26:11;;;;;;;134.18;27.98;;;;;;;-2.71;100.00;103103.84;5042227;28;20028;-86
2023/01/21 09:28:41;;;;;;;137.30;27.33;;;;;;;-2.85;100.00;103072.53;5038801;28;20025;-86
2023/01/21 09:31:10;;;;;;;116.30;23.10;;;;;;;-2.86;100.00;103073.47;5038057;28;20373;-87
2023/01/21 09:33:39;;;;;;;120.55;24.80;;;;;;;-2.75;100.00;103090.09;5001093;28;20069;-87
2023/01/21 09:36:07;;;;;;;133.63;29.23;;;;;;;-2.69;100.00;103101.13;5049060;28;20090;-85
2023/01/21 09:38:34;;;;;;;116.57;25.25;;;;;;;-2.63;100.00;103112.00;5039058;28;20025;-88
2023/01/21 09:41:26;;;;;;;145.20;29.55;;;;;;;-2.63;100.00;103119.00;5035042;28;20026;-88
2023/01/21 09:44:00;;;;;;;149.23;30.67;;;;;;;-2.64;100.00;103118.19;5037496;28;20086;-88
2023/01/21 09:47:04;;;;;;;121.90;25.07;;;;;;;-2.60;100.00;103127.53;5034444;28;20332;-88
2023/01/21 09:49:35;;;;;;;155.60;30.30;;;;;;;-2.61;100.00;103135.50;5052668;28;20013;-87
2023/01/21 09:52:18;;;;;;;153.50;30.30;;;;;;;-2.62;100.00;103139.91;5044501;28;20024;-88
2023/01/21 09:54:43;;;;;;;126.25;26.58;;;;;;;-2.59;100.00;103144.94;5042094;28;20041;-87
2023/01/21 09:57:26;;;;;;;70.93;17.97;;;;;;;-2.52;100.00;103158.47;5039125;28;20045;-88
2023/01/21 10:00:23;;;;;;;132.50;26.63;;;;;;;-2.47;100.00;103150.22;5028311;28;20026;-87
2023/01/21 10:03:04;;;;;;;126.47;26.35;;;;;;;-2.48;100.00;103145.94;5029161;28;20111;-87
2023/01/21 10:05:43;;;;;;;133.52;27.27;;;;;;;-2.47;100.00;103160.75;5020228;28;20026;-88
2023/01/21 10:08:36;;;;;;;111.37;24.53;;;;;;;-2.37;100.00;103171.41;5014012;28;20026;-88
2023/01/21 10:11:29;;;;;;;130.30;26.48;;;;;;;-2.36;100.00;103176.53;5034623;28;20469;-87
2023/01/21 10:14:07;;;;;;;150.75;28.42;;;;;;;-2.35;100.00;103177.38;5014951;28;20563;-88
2023/01/21 10:16:55;;;;;;;145.63;28.40;;;;;;;-2.33;100.00;103181.56;5014217;28;20038;-84
2023/01/21 10:19:32;;;;;;;153.80;27.77;;;;;;;-2.37;100.00;103174.84;5025256;28;20040;-85
2023/01/21 10:22:20;;;;;;;139.57;26.67;;;;;;;-2.30;100.00;103180.50;5012716;28;20049;-86
2023/01/21 10:25:02;;;;;;;122.40;24.43;;;;;;;-2.28;100.00;103182.06;5014224;28;20269;-84
2023/01/21 10:27:32;;;;;;;129.60;27.65;;;;;;;-2.28;100.00;103168.94;5027459;28;20123;-85
2023/01/21 10:30:19;;;;;;;149.45;27.77;;;;;;;-2.21;100.00;103165.84;5019294;28;20455;-86
2023/01/21 10:32:49;;;;;;;128.70;24.73;;;;;;;-2.09;100.00;103166.69;5026686;28;20038;-86
2023/01/21 10:35:29;;;;;;;119.00;23.20;;;;;;;-1.98;100.00;103179.88;5041901;28;20593;-87
2023/01/21 10:38:11;;;;;;;140.07;25.77;;;;;;;-1.90;100.00;103172.22;5045357;28;20021;-87
2023/01/21 10:40:59;;;;;;;150.70;27.73;;;;;;;-1.82;100.00;103179.53;5015140;28;20288;-86
2023/01/21 10:43:38;;;;;;;149.15;28.80;;;;;;;-1.75;100.00;103164.16;5010740;28;20057;-86
2023/01/21 10:46:19;;;;;;;132.52;26.38;;;;;;;-1.70;100.00;103162.84;5023471;28;20061;-87
2023/01/21 10:49:05;;;;;;;148.57;28.95;;;;;;;-1.68;100.00;103160.94;5036315;28;20495;-87
2023/01/21 10:51:44;;;;;;;143.02;28.60;;;;;;;-1.71;100.00;103152.41;5035828;28;20033;-87
2023/01/21 10:54:35;;;;;;;138.43;26.97;;;;;;;-1.66;100.00;103145.03;5034147;28;20052;-86
2023/01/21 10:57:18;;;;;;;141.80;28.47;;;;;;;-1.54;100.00;103166.91;5053740;28;20283;-87
2023/01/21 10:59:45;;;;;;;154.35;30.88;;;;;;;-1.60;100.00;103159.47;5041256;28;20109;-87
2023/01/21 11:02:30;;;;;;;133.10;27.90;;;;;;;-1.49;100.00;103142.88;5036030;28;20029;-88
2023/01/21 11:05:05;;;;;;;143.32;27.50;;;;;;;-1.47;100.00;103143.59;5020737;28;20030;-88
2023/01/21 11:07:37;;;;;;;135.02;26.92;;;;;;;-1.43;100.00;103145.84;5030777;28;20030;-89
2023/01/21 11:10:04;;;;;;;123.33;27.77;;;;;;;-1.44;100.00;103156.50;5022233;28;20121;-89
2023/01/21 11:12:31;;;;;;;120.83;24.73;;;;;;;-1.56;100.00;103147.78;5030847;28;20268;-86
2023/01/21 11:15:00;;;;;;;123.15;25.90;;;;;;;-1.55;100.00;103155.53;5030229;28;20029;-87
2023/01/21 11:17:35;;;;;;;129.80;27.83;;;;;;;-1.56;100.00;103153.88;5035395;28;20029;-87
2023/01/21 11:20:05;;;;;;;117.60;25.88;;;;;;;-1.71;100.00;103131.38;5033208;28;20044;-88
2023/01/21 11:22:31;;;;;;;125.82;28.55;;;;;;;-1.69;100.00;103135.59;5053860;28;20049;-88
2023/01/21 11:24:58;;;;;;;112.33;25.30;;;;;;;-1.74;100.00;103145.63;5035332;28;20028;-88
2023/01/21 11:27:36;;;;;;;127.13;27.15;;;;;;;-1.70;100.00;103154.94;5047589;28;20030;-87
2023/01/21 11:30:02;;;;;;;123.85;28.05;;;;;;;-1.74;100.00;103143.00;5036125;28;20458;-86
2023/01/21 11:32:29;;;;;;;120.00;27.27;;;;;;;-1.65;100.00;103148.50;5015210;28;20521;-87
2023/01/21 11:35:08;;;;;;;127.15;27.48;;;;;;;-1.76;100.00;103126.50;5903472;22;20008;-85
2023/01/21 11:37:36;;;;;;;122.97;28.00;;;;;;;-1.60;100.00;103154.22;5012586;28;20030;-85
2023/01/21 11:40:11;;;;;;;129.77;27.60;;;;;;;-1.62;100.00;103145.59;5013956;28;20057;-85
2023/01/21 11:42:51;;;;;;;128.57;28.23;;;;;;;-1.61;100.00;103150.75;5013817;28;20092;-85
2023/01/21 11:45:27;;;;;;;126.93;26.58;;;;;;;-1.55;100.00;103149.44;4990507;28;20034;-85
2023/01/21 11:47:52;;;;;;;120.40;26.70;;;;;;;-1.70;100.00;103123.41;5001306;28;20022;-85
2023/01/21 11:50:39;;;;;;;117.50;26.03;;;;;;;-1.58;100.00;103142.66;5000392;28;20436;-85
2023/01/21 11:53:13;;;;;;;128.45;26.70;;;;;;;-1.54;100.00;103143.22;4989972;28;20026;-85
2023/01/21 11:55:41;;;;;;;108.43;26.05;;;;;;;-1.58;100.00;103144.41;4990981;28;20030;-85
2023/01/21 11:58:17;;;;;;;118.10;26.38;;;;;;;-1.47;100.00;103147.06;4989511;28;20394;-85
2023/01/21 12:00:49;;;;;;;112.87;26.73;;;;;;;-1.47;100.00;103151.47;4993585;28;20738;-85
2023/01/21 12:03:19;;;;;;;117.07;27.37;;;;;;;-1.51;100.00;103137.72;4993710;28;20311;-85
2023/01/21 12:05:52;;;;;;;107.07;25.98;;;;;;;-1.42;100.00;103150.16;4994029;28;20114;-85